Nearby METAR Reports

 

KMTN - Baltimore/Martin, Maryland, USA
Distance from station: SSE 8mi, 13km
Updated: Fri, 06-May-2016 1:55pm EDT
Rain, Overcast
Rain, Overcast
 Wind from NE
Wind: NE 3 mph , 6 km/h
Temperature: 52°F , 11°C
Dew Point: 52°F , 11°C
Humidity: 100%
Barometer: 29.68 inHg , 1005.1 hPa
Summary: Rain
Clouds: Overcast
Visibility: 3 miles , 5 km
Cloud details: Partly cloudy 800 ft
Overcast 1100 ft
2016/05/06 17:55 KMTN 061755Z 05003KT 3SM RA SCT008 OVC011 11/11 A2968
KDMH - Baltimore/Dwntwn, Maryland, USA
Distance from station: SW 12mi, 19km
Updated: Fri, 06-May-2016 1:54pm EDT

 
Temperature: 54°F , 12°C
Dew Point: 48°F , 9°C
Humidity: 82%
Barometer: 29.66 inHg , 1004.4 hPa
2016/05/06 17:54 KDMH 061754Z AUTO 12/09 A2966 RMK AO1 SLP045 P0004 60087 T01170089 10117 20100 58004
 
KBWI - Balto/Wash Intl, Maryland, USA
Distance from station: SSW 20mi, 33km
Updated: Fri, 06-May-2016 2:30pm EDT
Heavy rain, Mist, Overcast
Heavy rain, Mist, Overcast
 Wind from NE
Wind: NE 3 mph , 6 km/h
Temperature: 52°F , 11°C
Dew Point: 48°F , 9°C
Humidity: 88%
Barometer: 29.65 inHg , 1004.1 hPa
Summary: Heavy rain, Mist
Clouds: Overcast
Visibility: 1 3/4 miles , 5 km
Cloud details: Partly cloudy 900 ft
Mostly cloudy 1400 ft
Overcast 2700 ft
2016/05/06 18:30 KBWI 061830Z 04003KT 1 3/4SM R10/3000VP6000FT +RA BR SCT009 BKN014 OVC027 11/09 A2965 RMK AO2 P0003 T01060094
KDMW - Carroll Cnty, Maryland, USA
Distance from station: WNW 30mi, 48km
Updated: Fri, 06-May-2016 2:35pm EDT
Rain, Overcast
Rain, Overcast
 Wind from NNE
Wind: NNE 7 mph , 11 km/h
Temperature: 52°F , 11°C
Dew Point: 46°F , 8°C
Humidity: 82%
Barometer: 29.66 inHg , 1004.4 hPa
Summary: Rain
Clouds: Overcast
Visibility: 10 miles , 16 km
Cloud details: Partly cloudy 1100 ft
Mostly cloudy 1900 ft
Overcast 2600 ft
2016/05/06 18:35 KDMW 061835Z AUTO 03006KT 10SM RA SCT011 BKN019 OVC026 11/08 A2966 RMK AO2 P0015
 
KNAK - Annapolis/Naval, Maryland, USA
Distance from station: S 30mi, 48km
Updated: Fri, 06-May-2016 2:13pm EDT
Light rain, Mist, Overcast
Light rain, Mist, Overcast
 Wind from varies
Wind: varies 5 mph , 7 km/h
Temperature: 52°F , 11°C
Dew Point: 48°F , 9°C
Humidity: 88%
Barometer: 29.66 inHg , 1004.4 hPa
Summary: Light rain, Mist
Clouds: Overcast
Visibility: 4 miles , 6 km
Cloud details: Partly cloudy 1500 ft
Partly cloudy 3000 ft
Overcast 3900 ft
2016/05/06 18:13 KNAK 061813Z AUTO VRB04KT 4SM -RA BR SCT015 SCT030 OVC039 11/09 A2966 RMK AO2 T01060094 PNO
KW29 - Stevensville, Maryland, USA
Distance from station: SSE 31mi, 50km
Updated: Fri, 06-May-2016 2:35pm EDT
Light rain, Overcast
Light rain, Overcast
 Wind from calm
Wind: Calm
Temperature: 52°F , 11°C
Dew Point: 50°F , 10°C
Humidity: 94%
Barometer: 29.66 inHg , 1004.4 hPa
Summary: Light rain
Clouds: Overcast
Visibility: 7 miles , 11 km
Cloud details: Mostly cloudy 900 ft
Mostly cloudy 1300 ft
Overcast 4500 ft
2016/05/06 18:35 KW29 061835Z AUTO 00000KT 7SM -RA BKN009 BKN013 OVC045 11/10 A2966 RMK AO2 P0006
 
KCGS - College Park, Maryland, USA
Distance from station: SW 38mi, 61km
Updated: Fri, 06-May-2016 2:35pm EDT
Overcast
Overcast
 Wind from calm
Wind: Calm
Temperature: 50°F , 10°C
Dew Point: 46°F , 8°C
Humidity: 88%
Barometer: 29.67 inHg , 1004.7 hPa
Clouds: Overcast
Visibility: 5 miles , 8 km
Cloud details: Partly cloudy 1300 ft
Mostly cloudy 2800 ft
Overcast 4500 ft
2016/05/06 18:35 KCGS 061835Z AUTO 00000KT 5SM SCT013 BKN028 OVC045 10/08 A2967 RMK AO1
KGAI - Gaithersburg, Maryland, USA
Distance from station: WSW 40mi, 65km
Updated: Fri, 06-May-2016 2:35pm EDT
Overcast
Overcast
 Wind from NNW
Wind: NNW 3 mph , 6 km/h
Temperature: 52°F , 11°C
Dew Point: 46°F , 8°C
Humidity: 82%
Barometer: 29.71 inHg , 1006.1 hPa
Clouds: Overcast
Visibility: 10 miles , 16 km
Cloud details: Few Clouds 3100 ft
Mostly cloudy 3900 ft
Overcast 5500 ft
2016/05/06 18:35 KGAI 061835Z AUTO 33003KT 10SM FEW031 BKN039 OVC055 11/08 A2971 RMK AO1 P0002
 
KTHV - York, Pennsylvania, USA
Distance from station: NNW 40mi, 65km
Updated: Fri, 06-May-2016 2:32pm EDT
Light rain, Overcast
Light rain, Overcast
 Wind from NNE
Wind: NNE 9 mph , 15 km/h
Temperature: 52°F , 11°C
Dew Point: 50°F , 10°C
Humidity: 94%
Barometer: 29.66 inHg , 1004.4 hPa
Summary: Light rain
Clouds: Overcast
Visibility: 8 miles , 13 km
Cloud details: Partly cloudy 700 ft
Mostly cloudy 1600 ft
Overcast 5000 ft
2016/05/06 18:32 KTHV 061832Z AUTO 03008KT 8SM -RA SCT007 BKN016 OVC050 11/10 A2966 RMK AO2 P0012 T01110100
KFDK - Frederick, Maryland, USA
Distance from station: W 47mi, 75km
Updated: Fri, 06-May-2016 1:50pm EDT
Rain, Overcast
Rain, Overcast
 Wind from NNW
Wind: NNW 12 mph , 19 km/h, Gust: 16 mph , 26 km/h
Temperature: 54°F , 12°C
Dew Point: 52°F , 11°C
Humidity: 94%
Barometer: 29.71 inHg , 1006.1 hPa
Summary: Rain
Clouds: Overcast
Visibility: 3 miles , 5 km
Cloud details: Partly cloudy 2000 ft
Partly cloudy 4000 ft
Overcast 5000 ft
2016/05/06 17:50 KFDK 061750Z 34010G14KT 3SM RA SCT020 SCT040 OVC050 12/11 A2971
 
KESN - Easton/Newnam, Maryland, USA
Distance from station: SSE 48mi, 78km
Updated: Fri, 06-May-2016 1:50pm EDT
Drizzle, Overcast
Drizzle, Overcast
 Wind from WSW
Wind: WSW 6 mph , 9 km/h
Barometer: 29.69 inHg , 1005.4 hPa
Summary: Drizzle
Clouds: Overcast
Visibility: 5 miles , 8 km
Cloud details: Mostly cloudy 800 ft
Overcast 1300 ft
2016/05/06 17:50 KESN 061750Z 25005KT 5SM DZ BKN008 OVC013 A2969
KDCA - Washington/Natl, Washington D.c., USA
Distance from station: SW 49mi, 79km
Updated: Fri, 06-May-2016 1:52pm EDT
Rain, Overcast
Rain, Overcast
 Wind from calm
Wind: Calm
Temperature: 52°F , 11°C
Dew Point: 46°F , 8°C
Humidity: 82%
Barometer: 29.69 inHg , 1005.4 hPa
Summary: Rain
Clouds: Overcast
Visibility: 6 miles , 10 km
Cloud details: Few Clouds 1200 ft
Overcast 5500 ft
2016/05/06 17:52 KDCA 061752Z 00000KT 6SM RA FEW012 OVC055 11/08 A2969 RMK AO2 SLP053 P0010 60045 T01110083 10128 20106 51001
 
KLNS - Lancaster, Pennsylvania, USA
Distance from station: N 49mi, 79km
Updated: Fri, 06-May-2016 2:33pm EDT
Overcast
Overcast
 Wind from ENE
Wind: ENE 8 mph , 13 km/h
Temperature: 52°F , 11°C
Dew Point: 50°F , 10°C
Humidity: 94%
Barometer: 29.65 inHg , 1004.1 hPa
Clouds: Overcast
Visibility: 10 miles , 16 km
Cloud details: Overcast 1000 ft
2016/05/06 18:33 KLNS 061833Z 06007KT 10SM OVC010 11/10 A2965 RMK AO2 RAE18 P0000 T01110100
KILG - Wilmington, Delaware, USA
Distance from station: ENE 50mi, 81km
Updated: Fri, 06-May-2016 1:51pm EDT
Overcast
Overcast
 Wind from NE
Wind: NE 15 mph , 24 km/h, Gust: 28 mph , 44 km/h
Temperature: 54°F , 12°C
Dew Point: 48°F , 9°C
Humidity: 82%
Barometer: 29.64 inHg , 1003.7 hPa
Clouds: Overcast
Visibility: 10 miles , 16 km
Cloud details: Partly cloudy 1500 ft
Mostly cloudy 2500 ft
Overcast 3600 ft
2016/05/06 17:51 KILG 061751Z 04013G24KT 10SM SCT015 BKN025 OVC036 12/09 A2964 RMK AO2 RAE1654 SLP037 P0000 60066 T01220089 10133 20100 58010 $